createdAt,value
2023-09-14T00:00:27.312Z,0.00
2023-09-14T00:01:27.367Z,0.00
2023-09-14T00:02:27.200Z,0.00
2023-09-14T00:03:27.240Z,0.00
2023-09-14T00:04:27.296Z,0.00
2023-09-14T00:05:27.144Z,0.00
2023-09-14T00:06:27.122Z,0.00
2023-09-14T00:07:27.233Z,0.00
2023-09-14T00:08:27.107Z,0.00
2023-09-14T00:09:27.124Z,0.00
2023-09-14T00:10:27.073Z,0.00
2023-09-14T00:11:27.089Z,0.00
2023-09-14T00:12:27.065Z,0.00
2023-09-14T00:13:27.066Z,0.00
2023-09-14T00:14:27.009Z,0.00
2023-09-14T00:15:27.045Z,0.00
2023-09-14T00:16:27.019Z,0.00
2023-09-14T00:17:26.973Z,0.00
2023-09-14T00:18:27.043Z,0.00
2023-09-14T00:20:26.943Z,0.00
2023-09-14T00:21:26.900Z,0.00
2023-09-14T00:22:26.892Z,0.00
2023-09-14T00:23:26.948Z,0.00
2023-09-14T00:24:26.887Z,0.00
2023-09-14T00:25:26.898Z,0.00
2023-09-14T00:26:26.888Z,0.00
2023-09-14T00:27:26.837Z,0.00
2023-09-14T00:28:26.833Z,0.00
2023-09-14T00:29:26.828Z,0.00
2023-09-14T00:30:26.795Z,0.00
2023-09-14T00:31:26.814Z,0.00
2023-09-14T00:32:26.830Z,0.00
2023-09-14T00:33:26.777Z,0.00
2023-09-14T00:34:26.751Z,0.00
2023-09-14T00:35:26.772Z,0.00
2023-09-14T00:36:26.738Z,0.00
2023-09-14T00:37:26.697Z,0.00
2023-09-14T00:38:26.696Z,0.00
2023-09-14T00:39:26.672Z,0.00
2023-09-14T00:40:26.692Z,0.00
2023-09-14T00:41:26.679Z,0.00
2023-09-14T00:42:26.625Z,0.00
2023-09-14T00:43:26.676Z,0.00
2023-09-14T00:44:26.642Z,0.00
2023-09-14T00:45:26.602Z,0.00
2023-09-14T00:46:27.900Z,0.00
2023-09-14T00:47:26.587Z,0.00
2023-09-14T00:48:26.566Z,0.00
2023-09-14T00:49:26.560Z,0.00
2023-09-14T00:50:26.515Z,0.00
2023-09-14T00:51:26.508Z,0.00
2023-09-14T00:52:26.494Z,0.00
2023-09-14T00:53:26.462Z,0.00
2023-09-14T00:54:26.497Z,0.00
2023-09-14T00:55:26.490Z,0.00
2023-09-14T00:56:26.414Z,0.00
2023-09-14T00:57:26.430Z,0.00
2023-09-14T00:58:26.412Z,0.00
2023-09-14T00:59:26.396Z,0.00
2023-09-14T01:00:26.424Z,0.00
2023-09-14T01:01:26.373Z,0.00
2023-09-14T01:02:26.407Z,0.00
2023-09-14T01:03:26.473Z,0.00
2023-09-14T01:04:26.345Z,0.00
2023-09-14T01:05:26.330Z,0.00
2023-09-14T01:06:26.279Z,0.00
2023-09-14T01:07:26.369Z,0.00
2023-09-14T01:08:26.255Z,0.00
2023-09-14T01:09:26.231Z,0.00
2023-09-14T01:10:26.234Z,0.00
2023-09-14T01:11:26.220Z,0.00
2023-09-14T01:12:26.196Z,0.00
2023-09-14T01:13:26.199Z,0.00
2023-09-14T01:14:26.151Z,0.00
2023-09-14T01:15:26.132Z,0.00
2023-09-14T01:16:26.158Z,0.00
2023-09-14T01:17:26.179Z,0.00
2023-09-14T01:18:26.120Z,0.00
2023-09-14T01:19:26.090Z,0.00
2023-09-14T01:20:26.103Z,0.00
2023-09-14T01:21:26.056Z,0.00
2023-09-14T01:22:26.125Z,0.00
2023-09-14T01:23:26.085Z,0.00
2023-09-14T01:24:26.040Z,0.00
2023-09-14T01:25:26.065Z,0.00
2023-09-14T01:26:25.981Z,0.00
2023-09-14T01:27:26.012Z,0.00
2023-09-14T01:28:25.991Z,0.00
2023-09-14T01:29:25.980Z,0.00
2023-09-14T01:30:25.943Z,0.00
2023-09-14T01:31:25.913Z,0.00
2023-09-14T01:32:25.927Z,0.00
2023-09-14T01:33:25.932Z,0.00
2023-09-14T01:34:26.109Z,0.00
2023-09-14T01:35:25.856Z,0.00
2023-09-14T01:36:25.860Z,0.00
2023-09-14T01:37:25.830Z,0.00
2023-09-14T01:38:25.821Z,0.00
2023-09-14T01:39:25.803Z,0.00
2023-09-14T01:40:25.788Z,0.00
2023-09-14T01:41:25.811Z,0.00
2023-09-14T01:42:25.755Z,0.00
2023-09-14T01:43:25.748Z,0.00
2023-09-14T01:44:25.775Z,0.00
2023-09-14T01:45:25.703Z,0.00
2023-09-14T01:46:25.814Z,0.00
2023-09-14T01:47:25.710Z,0.00
2023-09-14T01:48:25.724Z,0.00
2023-09-14T01:49:25.679Z,0.00
2023-09-14T01:50:25.675Z,0.00
2023-09-14T01:51:25.651Z,0.00
2023-09-14T01:52:25.636Z,0.00
2023-09-14T01:53:25.654Z,0.00
2023-09-14T01:54:25.583Z,0.00
2023-09-14T01:55:25.566Z,0.00
2023-09-14T01:56:25.577Z,0.00
2023-09-14T01:57:25.580Z,0.00
2023-09-14T01:58:25.593Z,0.00
2023-09-14T01:59:25.533Z,0.00
2023-09-14T02:00:25.519Z,0.00
2023-09-14T02:01:25.560Z,0.00
2023-09-14T02:02:25.478Z,0.00
2023-09-14T02:03:25.505Z,0.00
2023-09-14T02:04:25.488Z,0.00
2023-09-14T02:05:25.503Z,0.00
2023-09-14T02:06:25.430Z,0.00
2023-09-14T02:07:25.394Z,0.00
2023-09-14T02:08:25.457Z,0.00
2023-09-14T02:09:25.376Z,0.00
2023-09-14T02:10:25.366Z,0.00
2023-09-14T02:11:25.365Z,0.00
2023-09-14T02:12:25.335Z,0.00
2023-09-14T02:13:25.330Z,0.00
2023-09-14T02:14:25.292Z,0.00
2023-09-14T02:15:25.322Z,0.00
2023-09-14T02:16:25.431Z,0.00
2023-09-14T02:17:25.302Z,0.00
2023-09-14T02:18:25.258Z,0.00
2023-09-14T02:19:25.289Z,0.00
2023-09-14T02:20:25.225Z,0.00
2023-09-14T02:21:25.212Z,0.00
2023-09-14T02:22:25.179Z,0.00
2023-09-14T02:23:25.208Z,0.00
2023-09-14T02:24:25.164Z,0.00
2023-09-14T02:25:25.149Z,0.00
2023-09-14T02:26:25.141Z,0.00
2023-09-14T02:27:25.150Z,0.00
2023-09-14T02:28:25.102Z,0.00
2023-09-14T02:29:25.097Z,0.00
2023-09-14T02:30:25.068Z,0.00
2023-09-14T02:31:25.088Z,0.00
2023-09-14T02:32:25.029Z,0.00
2023-09-14T02:33:25.058Z,0.00
2023-09-14T02:34:25.094Z,0.00
2023-09-14T02:35:24.990Z,0.00
2023-09-14T02:36:25.015Z,0.00
2023-09-14T02:37:24.996Z,0.00
2023-09-14T02:38:25.003Z,0.00
2023-09-14T02:39:24.941Z,0.00
2023-09-14T02:40:24.926Z,0.00
2023-09-14T02:41:24.904Z,0.00
2023-09-14T02:42:24.927Z,0.00
2023-09-14T02:43:24.873Z,0.00
2023-09-14T02:44:24.925Z,0.00
2023-09-14T02:45:24.872Z,0.00
2023-09-14T02:46:24.915Z,0.00
2023-09-14T02:47:24.818Z,0.00
2023-09-14T02:48:24.814Z,0.00
2023-09-14T02:49:24.800Z,0.00
2023-09-14T02:50:24.883Z,0.00
2023-09-14T02:51:24.805Z,0.00
2023-09-14T02:52:24.813Z,0.00
2023-09-14T02:53:24.753Z,0.00
2023-09-14T02:54:24.737Z,0.00
2023-09-14T02:55:24.754Z,0.00
2023-09-14T02:56:24.706Z,0.00
2023-09-14T02:57:24.689Z,0.00
2023-09-14T02:58:24.663Z,0.00
2023-09-14T02:59:24.717Z,0.00
2023-09-14T03:00:24.646Z,0.00
2023-09-14T03:01:24.689Z,0.00
2023-09-14T03:02:24.648Z,0.00
2023-09-14T03:03:24.663Z,0.00
2023-09-14T03:04:24.646Z,0.00
2023-09-14T03:05:24.558Z,0.00
2023-09-14T03:06:24.565Z,0.00
2023-09-14T03:07:25.335Z,0.00
2023-09-14T03:08:24.545Z,0.00
2023-09-14T03:09:24.538Z,0.00
2023-09-14T03:10:24.510Z,0.00
2023-09-14T03:11:24.493Z,0.00
2023-09-14T03:12:24.500Z,0.00
2023-09-14T03:13:24.510Z,0.00
2023-09-14T03:14:24.438Z,0.00
2023-09-14T03:15:24.456Z,0.00
2023-09-14T03:16:24.455Z,0.00
2023-09-14T03:17:24.380Z,0.00
2023-09-14T03:18:24.456Z,0.00
2023-09-14T03:19:24.362Z,0.00
2023-09-14T03:20:24.351Z,0.00
2023-09-14T03:21:24.387Z,0.00
2023-09-14T03:22:24.325Z,0.00
2023-09-14T03:23:24.286Z,0.00
2023-09-14T03:24:24.319Z,0.00
2023-09-14T03:25:24.267Z,0.00
2023-09-14T03:26:24.279Z,0.00
2023-09-14T03:27:24.254Z,0.00
2023-09-14T03:28:24.293Z,0.00
2023-09-14T03:29:24.271Z,0.00
2023-09-14T03:30:24.231Z,0.00
2023-09-14T03:31:24.243Z,0.00
2023-09-14T03:32:24.185Z,0.00
2023-09-14T03:33:24.170Z,0.00
2023-09-14T03:34:24.165Z,0.00
2023-09-14T03:35:24.157Z,0.00
2023-09-14T03:36:24.122Z,0.00
2023-09-14T03:37:24.159Z,0.00
2023-09-14T03:38:24.118Z,0.00
2023-09-14T03:39:24.120Z,0.00
2023-09-14T03:40:24.073Z,0.00
2023-09-14T03:41:24.040Z,0.00
2023-09-14T03:42:24.028Z,0.00
2023-09-14T03:43:24.010Z,0.00
2023-09-14T03:44:24.025Z,0.00
2023-09-14T03:45:24.012Z,0.00
2023-09-14T03:46:24.093Z,0.00
2023-09-14T03:47:24.103Z,0.00
2023-09-14T03:48:23.943Z,0.00
2023-09-14T03:49:23.959Z,0.00
2023-09-14T03:50:24.022Z,0.00
2023-09-14T03:51:23.925Z,0.00
2023-09-14T03:52:23.885Z,0.00
2023-09-14T03:53:23.947Z,0.00
2023-09-14T03:54:23.874Z,0.00
2023-09-14T03:55:23.846Z,0.00
2023-09-14T03:56:23.848Z,0.00
2023-09-14T03:57:23.816Z,0.00
2023-09-14T03:58:23.797Z,0.00
2023-09-14T03:59:23.801Z,0.00
2023-09-14T04:00:23.792Z,0.00
2023-09-14T04:01:23.859Z,0.00
2023-09-14T04:02:23.750Z,0.00
2023-09-14T04:03:23.789Z,0.00
2023-09-14T04:04:23.943Z,0.00
2023-09-14T04:05:23.725Z,0.00
2023-09-14T04:06:23.764Z,0.00
2023-09-14T04:07:23.670Z,0.00
2023-09-14T04:08:23.667Z,0.00
2023-09-14T04:09:23.646Z,0.00
2023-09-14T04:10:23.620Z,0.00
2023-09-14T04:11:23.635Z,0.00
2023-09-14T04:12:23.584Z,0.00
2023-09-14T04:13:24.263Z,0.00
2023-09-14T04:14:23.584Z,0.00
2023-09-14T04:15:23.552Z,0.00
2023-09-14T04:16:23.758Z,0.00
2023-09-14T04:17:23.554Z,0.00
2023-09-14T04:18:23.530Z,0.00
2023-09-14T04:19:23.524Z,0.00
2023-09-14T04:20:23.481Z,0.00
2023-09-14T04:21:23.477Z,0.00
2023-09-14T04:22:23.510Z,0.00
2023-09-14T04:23:23.439Z,0.00
2023-09-14T04:24:23.460Z,0.00
2023-09-14T04:25:23.394Z,0.00
2023-09-14T04:26:23.410Z,0.00
2023-09-14T04:27:23.381Z,0.00
2023-09-14T04:28:23.342Z,0.00
2023-09-14T04:29:23.331Z,0.00
2023-09-14T04:30:23.368Z,0.00
2023-09-14T04:31:23.439Z,0.00
2023-09-14T04:32:23.286Z,0.00
2023-09-14T04:33:23.307Z,0.00
2023-09-14T04:34:23.339Z,0.00
2023-09-14T04:35:23.277Z,0.00
2023-09-14T04:36:23.272Z,0.00
2023-09-14T04:37:23.256Z,0.00
2023-09-14T04:38:23.189Z,0.00
2023-09-14T04:39:23.196Z,0.00
2023-09-14T04:40:23.171Z,0.00
2023-09-14T04:41:23.176Z,0.00
2023-09-14T04:42:23.159Z,0.00
2023-09-14T04:43:23.461Z,0.00
2023-09-14T04:44:23.129Z,0.00
2023-09-14T04:45:23.223Z,0.00
2023-09-14T04:46:23.199Z,0.00
2023-09-14T04:47:23.130Z,0.00
2023-09-14T04:48:23.086Z,0.00
2023-09-14T04:49:23.166Z,0.00
2023-09-14T04:50:23.058Z,0.00
2023-09-14T04:51:23.110Z,0.00
2023-09-14T04:52:23.024Z,0.00
2023-09-14T04:53:23.070Z,0.00
2023-09-14T04:54:23.012Z,0.00
2023-09-14T04:55:23.138Z,0.00
2023-09-14T04:56:22.981Z,0.00
2023-09-14T04:57:22.992Z,0.00
2023-09-14T04:58:26.482Z,0.00
2023-09-14T04:59:22.967Z,0.00
2023-09-14T05:00:23.111Z,0.00
2023-09-14T05:01:23.103Z,0.00
2023-09-14T05:02:22.988Z,0.00
2023-09-14T05:03:22.941Z,0.00
2023-09-14T05:04:23.040Z,0.00
2023-09-14T05:05:22.837Z,0.00
2023-09-14T05:06:22.969Z,0.00
2023-09-14T05:07:22.938Z,0.00
2023-09-14T05:08:22.859Z,5.62
2023-09-14T05:09:22.914Z,5.62
2023-09-14T05:10:22.898Z,5.62
2023-09-14T05:11:22.771Z,5.62
2023-09-14T05:12:22.775Z,5.62
2023-09-14T05:13:22.782Z,5.62
2023-09-14T05:14:22.806Z,5.62
2023-09-14T05:15:22.798Z,5.62
2023-09-14T05:16:22.794Z,5.62
2023-09-14T05:17:22.765Z,11.25
2023-09-14T05:18:22.718Z,11.25
2023-09-14T05:19:22.809Z,11.25
2023-09-14T05:20:22.794Z,11.25
2023-09-14T05:21:22.726Z,11.25
2023-09-14T05:22:22.811Z,11.25
2023-09-14T05:23:22.594Z,11.25
2023-09-14T05:24:22.829Z,11.25
2023-09-14T05:25:22.877Z,16.88
2023-09-14T05:26:22.646Z,16.88
2023-09-14T05:27:22.691Z,16.88
2023-09-14T05:28:22.609Z,16.88
2023-09-14T05:29:22.544Z,16.88
2023-09-14T05:30:22.795Z,22.50
2023-09-14T05:31:22.594Z,22.50
2023-09-14T05:32:22.568Z,22.50
2023-09-14T05:33:22.611Z,22.50
2023-09-14T05:34:22.498Z,22.50
2023-09-14T05:35:22.585Z,22.50
2023-09-14T05:36:22.579Z,22.50
2023-09-14T05:37:22.550Z,28.12
2023-09-14T05:38:22.720Z,28.12
2023-09-14T05:39:22.422Z,28.12
2023-09-14T05:40:22.540Z,28.12
2023-09-14T05:41:22.433Z,28.12
2023-09-14T05:42:28.954Z,28.12
2023-09-14T05:43:22.359Z,28.12
2023-09-14T05:44:22.291Z,28.12
2023-09-14T05:45:22.257Z,33.75
2023-09-14T05:46:22.355Z,33.75
2023-09-14T05:47:22.364Z,33.75
2023-09-14T05:48:22.262Z,39.38
2023-09-14T05:49:22.231Z,39.38
2023-09-14T05:50:22.174Z,39.38
2023-09-14T05:51:22.160Z,39.38
2023-09-14T05:52:22.266Z,39.38
2023-09-14T05:53:22.151Z,39.38
2023-09-14T05:54:22.171Z,39.38
2023-09-14T05:55:22.253Z,39.38
2023-09-14T05:56:22.158Z,39.38
2023-09-14T05:57:22.220Z,39.38
2023-09-14T05:58:22.106Z,39.38
2023-09-14T05:59:31.888Z,39.38
2023-09-14T06:00:23.096Z,45.00
2023-09-14T06:01:22.165Z,45.00
2023-09-14T06:02:22.042Z,45.00
2023-09-14T06:03:22.006Z,45.00
2023-09-14T06:04:22.096Z,45.00
2023-09-14T06:05:26.050Z,50.62
2023-09-14T06:06:21.987Z,50.62
2023-09-14T06:07:21.904Z,50.62
2023-09-14T06:08:21.933Z,50.62
2023-09-14T06:09:21.903Z,50.62
2023-09-14T06:10:22.082Z,56.25
2023-09-14T06:11:21.929Z,56.25
2023-09-14T06:12:21.913Z,56.25
2023-09-14T06:13:22.004Z,56.25
2023-09-14T06:14:21.824Z,56.25
2023-09-14T06:15:21.837Z,56.25
2023-09-14T06:16:21.969Z,56.25
2023-09-14T06:17:21.846Z,56.25
2023-09-14T06:18:21.886Z,56.25
2023-09-14T06:19:21.803Z,56.25
2023-09-14T06:20:21.820Z,56.25
2023-09-14T06:21:21.712Z,56.25
2023-09-14T06:22:21.754Z,56.25
2023-09-14T06:23:21.736Z,61.88
2023-09-14T06:24:21.686Z,61.88
2023-09-14T06:25:21.796Z,61.88
2023-09-14T06:26:21.640Z,67.50
2023-09-14T06:27:21.636Z,67.50
2023-09-14T06:28:21.695Z,67.50
2023-09-14T06:29:21.616Z,67.50
2023-09-14T06:30:21.603Z,67.50
2023-09-14T06:31:21.824Z,73.12
2023-09-14T06:32:21.565Z,73.12
2023-09-14T06:33:21.595Z,73.12
2023-09-14T06:34:21.558Z,73.12
2023-09-14T06:35:21.505Z,78.75
2023-09-14T06:36:21.536Z,78.75
2023-09-14T06:37:21.525Z,78.75
2023-09-14T06:38:21.527Z,78.75
2023-09-14T06:39:21.512Z,78.75
2023-09-14T06:40:21.544Z,78.75
2023-09-14T06:41:21.469Z,78.75
2023-09-14T06:42:21.466Z,78.75
2023-09-14T06:43:21.484Z,78.75
2023-09-14T06:44:21.382Z,78.75
2023-09-14T06:45:22.168Z,78.75
2023-09-14T06:46:21.489Z,78.75
2023-09-14T06:47:21.382Z,78.75
2023-09-14T06:48:21.336Z,78.75
2023-09-14T06:49:21.385Z,78.75
2023-09-14T06:50:22.483Z,84.38
2023-09-14T06:51:21.302Z,84.38
2023-09-14T06:52:21.331Z,84.38
2023-09-14T06:53:21.312Z,90.00
2023-09-14T06:54:21.340Z,90.00
2023-09-14T06:55:21.443Z,90.00
2023-09-14T06:56:21.236Z,90.00
2023-09-14T06:57:21.407Z,90.00
2023-09-14T06:58:21.302Z,95.62
2023-09-14T06:59:21.173Z,95.62
2023-09-14T07:00:21.176Z,95.62
2023-09-14T07:01:21.362Z,95.62
2023-09-14T07:02:21.184Z,90.00
2023-09-14T07:03:21.229Z,90.00
2023-09-14T07:04:21.231Z,90.00
2023-09-14T07:05:21.295Z,90.00
2023-09-14T07:06:21.110Z,90.00
2023-09-14T07:07:21.086Z,90.00
2023-09-14T07:08:21.072Z,90.00
2023-09-14T07:09:21.065Z,90.00
2023-09-14T07:10:21.037Z,90.00
2023-09-14T07:11:21.036Z,95.62
2023-09-14T07:12:21.077Z,106.88
2023-09-14T07:13:21.052Z,112.50
2023-09-14T07:14:20.984Z,106.88
2023-09-14T07:15:21.021Z,106.88
2023-09-14T07:16:21.070Z,106.88
2023-09-14T07:17:23.032Z,106.88
2023-09-14T07:18:21.049Z,106.88
2023-09-14T07:19:20.975Z,106.88
2023-09-14T07:20:20.900Z,112.50
2023-09-14T07:21:20.920Z,118.12
2023-09-14T07:22:20.947Z,118.12
2023-09-14T07:23:20.884Z,123.75
2023-09-14T07:24:20.875Z,129.38
2023-09-14T07:25:20.869Z,135.00
2023-09-14T07:26:20.812Z,135.00
2023-09-14T07:27:20.803Z,146.25
2023-09-14T07:28:20.902Z,135.00
2023-09-14T07:29:20.797Z,135.00
2023-09-14T07:30:20.795Z,135.00
2023-09-14T07:31:20.855Z,129.38
2023-09-14T07:32:20.791Z,135.00
2023-09-14T07:33:20.751Z,140.62
2023-09-14T07:34:20.771Z,135.00
2023-09-14T07:35:20.763Z,135.00
2023-09-14T07:36:20.671Z,129.38
2023-09-14T07:37:20.695Z,129.38
2023-09-14T07:38:20.672Z,135.00
2023-09-14T07:39:22.054Z,135.00
2023-09-14T07:40:20.679Z,135.00
2023-09-14T07:41:20.624Z,140.62
2023-09-14T07:42:20.603Z,140.62
2023-09-14T07:43:20.626Z,146.25
2023-09-14T07:44:20.616Z,135.00
2023-09-14T07:45:20.578Z,129.38
2023-09-14T07:46:20.696Z,129.38
2023-09-14T07:47:20.602Z,129.38
2023-09-14T07:48:20.528Z,135.00
2023-09-14T07:49:20.627Z,135.00
2023-09-14T07:50:20.523Z,151.88
2023-09-14T07:51:20.495Z,146.25
2023-09-14T07:52:20.600Z,146.25
2023-09-14T07:53:20.459Z,146.25
2023-09-14T07:54:20.448Z,146.25
2023-09-14T07:55:20.459Z,140.62
2023-09-14T07:56:20.449Z,140.62
2023-09-14T07:57:20.413Z,135.00
2023-09-14T07:58:20.411Z,140.62
2023-09-14T07:59:20.372Z,146.25
2023-09-14T08:00:20.386Z,140.62
2023-09-14T08:01:20.359Z,140.62
2023-09-14T08:02:20.351Z,140.62
2023-09-14T08:03:20.356Z,140.62
2023-09-14T08:04:20.532Z,140.62
2023-09-14T08:05:20.442Z,140.62
2023-09-14T08:06:21.775Z,140.62
2023-09-14T08:07:20.333Z,140.62
2023-09-14T08:08:20.271Z,140.62
2023-09-14T08:09:20.257Z,146.25
2023-09-14T08:10:20.307Z,151.88
2023-09-14T08:11:20.246Z,163.12
2023-09-14T08:12:20.235Z,168.75
2023-09-14T08:13:20.242Z,163.12
2023-09-14T08:14:20.199Z,163.12
2023-09-14T08:15:20.210Z,163.12
2023-09-14T08:16:20.194Z,168.75
2023-09-14T08:17:20.156Z,174.38
2023-09-14T08:18:20.139Z,191.25
2023-09-14T08:19:20.158Z,191.25
2023-09-14T08:20:20.131Z,191.25
2023-09-14T08:21:20.088Z,191.25
2023-09-14T08:22:20.133Z,196.88
2023-09-14T08:23:20.477Z,196.88
2023-09-14T08:24:20.080Z,196.88
2023-09-14T08:25:20.091Z,196.88
2023-09-14T08:26:20.003Z,191.25
2023-09-14T08:27:20.008Z,191.25
2023-09-14T08:28:20.043Z,191.25
2023-09-14T08:29:19.989Z,191.25
2023-09-14T08:30:20.036Z,191.25
2023-09-14T08:31:20.105Z,185.62
2023-09-14T08:32:19.990Z,185.62
2023-09-14T08:33:21.070Z,180.00
2023-09-14T08:34:19.962Z,180.00
2023-09-14T08:35:19.917Z,174.38
2023-09-14T08:36:19.971Z,174.38
2023-09-14T08:37:19.964Z,163.12
2023-09-14T08:38:21.764Z,157.50
2023-09-14T08:39:19.839Z,157.50
2023-09-14T08:40:19.987Z,151.88
2023-09-14T08:41:19.822Z,151.88
2023-09-14T08:42:19.809Z,146.25
2023-09-14T08:43:20.022Z,140.62
2023-09-14T08:44:19.771Z,135.00
2023-09-14T08:45:19.759Z,135.00
2023-09-14T08:46:19.865Z,135.00
2023-09-14T08:47:20.537Z,135.00
2023-09-14T08:48:19.763Z,140.62
2023-09-14T08:49:19.752Z,146.25
2023-09-14T08:50:19.749Z,146.25
2023-09-14T08:51:19.687Z,146.25
2023-09-14T08:52:19.794Z,146.25
2023-09-14T08:53:19.682Z,140.62
2023-09-14T08:54:19.673Z,118.12
2023-09-14T08:55:19.719Z,112.50
2023-09-14T08:56:19.918Z,112.50
2023-09-14T08:57:19.597Z,112.50
2023-09-14T08:58:19.630Z,106.88
2023-09-14T08:59:19.623Z,106.88
2023-09-14T09:00:19.562Z,106.88
2023-09-14T09:01:19.680Z,106.88
2023-09-14T09:02:19.644Z,106.88
2023-09-14T09:03:19.555Z,106.88
2023-09-14T09:04:19.671Z,106.88
2023-09-14T09:05:19.520Z,106.88
2023-09-14T09:06:19.495Z,106.88
2023-09-14T09:07:19.476Z,106.88
2023-09-14T09:08:19.459Z,106.88
2023-09-14T09:09:19.519Z,106.88
2023-09-14T09:10:19.493Z,112.50
2023-09-14T09:11:19.436Z,118.12
2023-09-14T09:12:19.418Z,123.75
2023-09-14T09:13:19.471Z,140.62
2023-09-14T09:14:19.395Z,129.38
2023-09-14T09:15:19.473Z,129.38
2023-09-14T09:16:19.444Z,129.38
2023-09-14T09:17:19.360Z,129.38
2023-09-14T09:18:19.352Z,135.00
2023-09-14T09:19:19.418Z,135.00
2023-09-14T09:20:19.370Z,157.50
2023-09-14T09:21:19.334Z,163.12
2023-09-14T09:22:19.321Z,151.88
2023-09-14T09:23:19.304Z,163.12
2023-09-14T09:24:19.257Z,185.62
2023-09-14T09:25:19.313Z,191.25
2023-09-14T09:26:19.250Z,180.00
2023-09-14T09:27:19.242Z,196.88
2023-09-14T09:28:19.255Z,174.38
2023-09-14T09:29:19.233Z,168.75
2023-09-14T09:30:19.174Z,163.12
2023-09-14T09:31:19.202Z,168.75
2023-09-14T09:32:19.148Z,174.38
2023-09-14T09:33:19.140Z,174.38
2023-09-14T09:34:19.161Z,168.75
2023-09-14T09:35:19.104Z,174.38
2023-09-14T09:36:19.099Z,180.00
2023-09-14T09:37:19.156Z,174.38
2023-09-14T09:38:19.053Z,157.50
2023-09-14T09:39:19.044Z,151.88
2023-09-14T09:40:19.079Z,157.50
2023-09-14T09:41:19.096Z,163.12
2023-09-14T09:42:19.016Z,174.38
2023-09-14T09:43:19.046Z,180.00
2023-09-14T09:44:19.031Z,185.62
2023-09-14T09:45:18.971Z,196.88
2023-09-14T09:46:18.997Z,202.50
2023-09-14T09:47:18.996Z,185.62
2023-09-14T09:48:18.934Z,191.25
2023-09-14T09:49:19.060Z,196.88
2023-09-14T09:50:18.917Z,202.50
2023-09-14T09:51:18.884Z,213.75
2023-09-14T09:52:18.999Z,225.00
2023-09-14T09:53:18.998Z,236.25
2023-09-14T09:54:19.156Z,247.50
2023-09-14T09:55:18.936Z,241.88
2023-09-14T09:56:18.810Z,247.50
2023-09-14T09:57:18.819Z,230.62
2023-09-14T09:58:19.056Z,225.00
2023-09-14T09:59:18.787Z,230.62
2023-09-14T10:00:18.804Z,241.88
2023-09-14T10:01:18.844Z,241.88
2023-09-14T10:02:18.725Z,241.88
2023-09-14T10:03:18.900Z,236.25
2023-09-14T10:04:18.791Z,236.25
2023-09-14T10:05:18.765Z,236.25
2023-09-14T10:06:18.737Z,241.88
2023-09-14T10:07:18.686Z,241.88
2023-09-14T10:08:18.729Z,247.50
2023-09-14T10:09:18.662Z,247.50
2023-09-14T10:10:18.727Z,247.50
2023-09-14T10:11:18.652Z,247.50
2023-09-14T10:12:18.637Z,247.50
2023-09-14T10:13:18.612Z,247.50
2023-09-14T10:14:18.602Z,241.88
2023-09-14T10:15:18.598Z,241.88
2023-09-14T10:16:18.632Z,241.88
2023-09-14T10:17:18.580Z,247.50
2023-09-14T10:18:18.609Z,253.12
2023-09-14T10:19:18.540Z,258.75
2023-09-14T10:20:18.555Z,264.38
2023-09-14T10:21:18.540Z,258.75
2023-09-14T10:22:18.509Z,258.75
2023-09-14T10:23:18.476Z,258.75
2023-09-14T10:24:18.548Z,258.75
2023-09-14T10:25:18.474Z,264.38
2023-09-14T10:26:18.428Z,258.75
2023-09-14T10:27:18.407Z,241.88
2023-09-14T10:28:18.489Z,236.25
2023-09-14T10:29:18.388Z,225.00
2023-09-14T10:30:18.378Z,213.75
2023-09-14T10:31:18.453Z,208.12
2023-09-14T10:32:18.352Z,191.25
2023-09-14T10:33:18.369Z,185.62
2023-09-14T10:34:18.367Z,180.00
2023-09-14T10:35:18.364Z,174.38
2023-09-14T10:36:18.311Z,168.75
2023-09-14T10:37:18.423Z,168.75
2023-09-14T10:38:18.414Z,168.75
2023-09-14T10:39:18.242Z,168.75
2023-09-14T10:40:18.270Z,174.38
2023-09-14T10:41:18.195Z,174.38
2023-09-14T10:42:18.203Z,174.38
2023-09-14T10:43:18.281Z,174.38
2023-09-14T10:44:18.196Z,174.38
2023-09-14T10:45:18.206Z,180.00
2023-09-14T10:46:18.239Z,196.88
2023-09-14T10:47:18.173Z,202.50
2023-09-14T10:48:18.132Z,202.50
2023-09-14T10:49:39.133Z,185.62
2023-09-14T10:50:18.088Z,191.25
2023-09-14T10:51:18.106Z,185.62
2023-09-14T10:52:18.092Z,180.00
2023-09-14T10:53:18.084Z,180.00
2023-09-14T10:54:19.186Z,180.00
2023-09-14T10:55:18.106Z,180.00
2023-09-14T10:56:18.024Z,180.00
2023-09-14T10:57:17.979Z,180.00
2023-09-14T10:58:18.120Z,174.38
2023-09-14T10:59:17.996Z,168.75
2023-09-14T11:00:25.965Z,174.38
2023-09-14T11:01:24.712Z,174.38
2023-09-14T11:02:22.956Z,174.38
2023-09-14T11:03:23.911Z,174.38
2023-09-14T11:04:19.218Z,180.00
2023-09-14T11:05:18.569Z,180.00
2023-09-14T11:06:18.478Z,180.00
2023-09-14T11:07:18.379Z,180.00
2023-09-14T11:08:18.315Z,174.38
2023-09-14T11:09:18.417Z,174.38
2023-09-14T11:10:18.962Z,174.38
2023-09-14T11:11:18.630Z,174.38
2023-09-14T11:12:18.162Z,185.62
2023-09-14T11:13:17.950Z,191.25
2023-09-14T11:14:18.334Z,185.62
2023-09-14T11:15:19.175Z,191.25
2023-09-14T11:16:17.921Z,196.88
2023-09-14T11:17:17.812Z,196.88
2023-09-14T11:18:18.668Z,196.88
2023-09-14T11:19:19.031Z,196.88
2023-09-14T11:20:19.365Z,196.88
2023-09-14T11:21:19.221Z,208.12
2023-09-14T11:22:18.925Z,219.38
2023-09-14T11:23:18.306Z,230.62
2023-09-14T11:24:18.621Z,258.75
2023-09-14T11:25:28.444Z,270.00
2023-09-14T11:26:21.758Z,270.00
2023-09-14T11:27:18.060Z,253.12
2023-09-14T11:28:17.687Z,275.62
2023-09-14T11:29:19.291Z,286.88
2023-09-14T11:30:19.780Z,286.88
2023-09-14T11:31:18.078Z,292.50
2023-09-14T11:32:19.831Z,292.50
2023-09-14T11:33:18.807Z,292.50
2023-09-14T11:34:19.491Z,286.88
2023-09-14T11:35:19.166Z,270.00
2023-09-14T11:36:18.157Z,253.12
2023-09-14T11:37:20.130Z,275.62
2023-09-14T11:38:18.499Z,270.00
2023-09-14T11:39:20.059Z,241.88
2023-09-14T11:40:20.982Z,270.00
2023-09-14T11:44:44.277Z,258.75
2023-09-14T11:45:30.946Z,253.12
2023-09-14T11:46:30.043Z,258.75
2023-09-14T11:47:34.330Z,264.38
2023-09-14T11:49:29.500Z,253.12
2023-09-14T11:50:29.668Z,253.12
2023-09-14T11:51:29.449Z,253.12
2023-09-14T11:52:29.441Z,253.12
2023-09-14T11:53:29.434Z,247.50
2023-09-14T11:54:29.583Z,247.50
2023-09-14T11:55:29.483Z,247.50
2023-09-14T11:56:29.459Z,247.50
2023-09-14T11:57:29.550Z,253.12
2023-09-14T11:58:29.379Z,253.12
2023-09-14T11:59:29.357Z,253.12
2023-09-14T12:00:29.358Z,247.50
2023-09-14T12:01:29.384Z,241.88
2023-09-14T12:02:29.361Z,241.88
2023-09-14T12:03:29.335Z,241.88
2023-09-14T12:04:29.395Z,241.88
2023-09-14T12:05:29.278Z,247.50
2023-09-14T12:06:29.292Z,247.50
2023-09-14T12:07:29.233Z,247.50
2023-09-14T12:08:29.346Z,247.50
2023-09-14T12:10:29.218Z,247.50
2023-09-14T12:11:29.182Z,241.88
2023-09-14T12:12:29.380Z,247.50
2023-09-14T12:13:31.178Z,247.50
2023-09-14T12:14:29.157Z,253.12
2023-09-14T12:15:29.202Z,253.12
2023-09-14T12:16:29.367Z,253.12
2023-09-14T12:17:29.334Z,253.12
2023-09-14T12:18:29.125Z,253.12
2023-09-14T12:19:29.156Z,253.12
2023-09-14T12:20:37.975Z,253.12
2023-09-14T12:21:29.117Z,258.75
2023-09-14T12:22:29.123Z,258.75
2023-09-14T12:23:29.050Z,264.38
2023-09-14T12:24:29.041Z,270.00
2023-09-14T12:25:29.018Z,281.25
2023-09-14T12:26:29.020Z,315.00
2023-09-14T12:27:29.128Z,393.75
2023-09-14T12:28:28.985Z,393.75
2023-09-14T12:29:28.957Z,455.62
2023-09-14T12:30:28.965Z,466.88
2023-09-14T12:31:28.986Z,472.50
2023-09-14T12:32:28.930Z,416.25
2023-09-14T12:33:29.022Z,371.25
2023-09-14T12:34:29.006Z,337.50
2023-09-14T12:35:28.881Z,393.75
2023-09-14T12:36:28.962Z,421.88
2023-09-14T12:37:28.947Z,427.50
2023-09-14T12:38:40.411Z,399.38
2023-09-14T12:39:29.887Z,382.50
2023-09-14T12:40:28.811Z,376.88
2023-09-14T12:41:28.855Z,360.00
2023-09-14T12:42:28.816Z,354.38
2023-09-14T12:43:28.898Z,348.75
2023-09-14T12:44:28.771Z,286.88
2023-09-14T12:45:28.817Z,337.50
2023-09-14T12:46:28.787Z,343.12
2023-09-14T12:47:28.751Z,365.62
2023-09-14T12:48:28.750Z,191.25
2023-09-14T12:49:28.670Z,264.38
2023-09-14T12:50:28.718Z,382.50
2023-09-14T12:51:28.679Z,376.88
2023-09-14T12:52:28.648Z,376.88
2023-09-14T12:53:28.701Z,371.25
2023-09-14T12:54:28.663Z,371.25
2023-09-14T12:55:28.592Z,376.88
2023-09-14T12:56:28.659Z,371.25
2023-09-14T12:57:28.596Z,371.25